Time;durP1;ratioP1;P1;durP2;ratioP2;P2;SDS_P1;SDS_P2;PMS_P1;PMS_P2;Temp;Humidity;BMP_temperature;BMP_pressure;BME280_temperature;BME280_humidity;BME280_pressure;Samples;Min_cycle;Max_cycle;Signal;HPM_P1;HPM_P2
2023/10/07 00:00:48;;;;;;;;;;;;;;;;;;2207536;66;2144;-24
2023/10/07 00:03:20;;;;;;;;;;;;;;;;;;2205107;66;2358;-24
2023/10/07 00:05:50;;;;;;;;;;;;;;;;;;2209286;59;2647;-24
2023/10/07 00:08:20;;;;;;;;;;;;;;;;;;2209819;66;2341;-24
2023/10/07 00:10:51;;;;;;;;;;;;;;;;;;2207698;59;2543;-24
2023/10/07 00:13:23;;;;;;;;;;;;;;;;;;2207786;59;3814;-24
2023/10/07 00:15:53;;;;;;;;;;;;;;;;;;2204263;59;2558;-24
2023/10/07 00:18:23;;;;;;;;;;;;;;;;;;2207442;59;3740;-24
2023/10/07 00:20:55;;;;;;;;;;;;;;;;;;2207927;59;2448;-24
2023/10/07 00:23:28;;;;;;;;;;;;;;;;;;2207786;59;3723;-24
2023/10/07 00:25:58;;;;;;;;;;;;;;;;;;2208395;66;3285;-24
2023/10/07 00:28:32;;;;;;;;;;;;;;;;;;2203626;66;3222;-24
2023/10/07 00:31:06;;;;;;;;;;;;;;;;;;2207963;59;1733;-24
2023/10/07 00:36:49;;;;;;;;;;;;;;;;;;2207489;59;2761;-24
2023/10/07 00:39:22;;;;;;;;;;;;;;;;;;2208139;66;2284;-24
2023/10/07 00:41:58;;;;;;;;;;;;;;;;;;2203772;59;2276;-24
2023/10/07 00:44:35;;;;;;;;;;;;;;;;;;2207530;59;2434;-24
2023/10/07 00:52:25;;;;;;;;;;;;;;;;;;2204029;59;1960;-24
2023/10/07 00:55:06;;;;;;;;;;;;;;;;;;2205250;58;2983;-24
2023/10/07 00:57:47;;;;;;;;;;;;;;;;;;2203563;66;2651;-24
2023/10/07 01:03:47;;;;;;;;;;;;;;;;;;2208914;66;3638;-24
2023/10/07 01:08:35;;;;;;;;;;;;;;;;;;2208615;66;2322;-24
2023/10/07 01:11:19;;;;;;;;;;;;;;;;;;2208546;66;3245;-24
2023/10/07 01:13:56;;;;;;;;;;;;;;;;;;2203757;59;3675;-24
2023/10/07 01:16:40;;;;;;;;;;;;;;;;;;2207492;66;3887;-24
2023/10/07 01:21:54;;;;;;;;;;;;;;;;;;2203018;59;2008;-24
2023/10/07 01:27:28;;;;;;;;;;;;;;;;;;2208080;66;2576;-24
2023/10/07 01:30:15;;;;;;;;;;;;;;;;;;2207870;59;3788;-24
2023/10/07 01:32:53;;;;;;;;;;;;;;;;;;2207281;59;1793;-24
2023/10/07 01:35:30;;;;;;;;;;;;;;;;;;2206033;59;1892;-24
2023/10/07 01:38:06;;;;;;;;;;;;;;;;;;2207038;59;3719;-24
2023/10/07 01:43:24;;;;;;;;;;;;;;;;;;2208071;59;2179;-24
2023/10/07 01:45:55;;;;;;;;;;;;;;;;;;2206626;59;1883;-24
2023/10/07 01:48:25;;;;;;;;;;;;;;;;;;2207673;66;2902;-24
2023/10/07 01:50:57;;;;;;;;;;;;;;;;;;2202911;59;2746;-24
2023/10/07 01:53:27;;;;;;;;;;;;;;;;;;2207652;66;3112;-24
2023/10/07 01:55:58;;;;;;;;;;;;;;;;;;2204947;66;1782;-24
2023/10/07 01:58:30;;;;;;;;;;;;;;;;;;2208009;66;1823;-24
2023/10/07 02:01:00;;;;;;;;;;;;;;;;;;2207201;66;2234;-24
2023/10/07 02:03:32;;;;;;;;;;;;;;;;;;2206741;66;2692;-24
2023/10/07 02:06:05;;;;;;;;;;;;;;;;;;2210748;66;2806;-24
2023/10/07 02:08:37;;;;;;;;;;;;;;;;;;2209100;66;2259;-24
2023/10/07 02:11:09;;;;;;;;;;;;;;;;;;2203169;66;2455;-24
2023/10/07 02:13:39;;;;;;;;;;;;;;;;;;2206566;59;2035;-24
2023/10/07 02:16:13;;;;;;;;;;;;;;;;;;2207317;66;4030;-24
2023/10/07 02:18:44;;;;;;;;;;;;;;;;;;2207206;59;3175;-24
2023/10/07 02:21:20;;;;;;;;;;;;;;;;;;2208390;66;2814;-24
2023/10/07 02:23:50;;;;;;;;;;;;;;;;;;2202842;59;4062;-25
2023/10/07 02:26:21;;;;;;;;;;;;;;;;;;2208141;59;4447;-25
2023/10/07 02:28:52;;;;;;;;;;;;;;;;;;2207476;66;2316;-24
2023/10/07 02:31:23;;;;;;;;;;;;;;;;;;2205798;59;4247;-25
2023/10/07 02:33:57;;;;;;;;;;;;;;;;;;2207528;66;3578;-24
2023/10/07 02:36:28;;;;;;;;;;;;;;;;;;2208254;66;2633;-24
2023/10/07 02:39:18;;;;;;;;;;;;;;;;;;2206595;59;1848;-24
2023/10/07 02:41:49;;;;;;;;;;;;;;;;;;2202133;59;2960;-25
2023/10/07 02:44:27;;;;;;;;;;;;;;;;;;2204269;59;3325;-25
2023/10/07 02:46:58;;;;;;;;;;;;;;;;;;2203773;66;2632;-24
2023/10/07 02:49:28;;;;;;;;;;;;;;;;;;2204745;58;3851;-24
2023/10/07 02:52:02;;;;;;;;;;;;;;;;;;2200344;59;2056;-25
2023/10/07 02:54:33;;;;;;;;;;;;;;;;;;2206930;59;2842;-24
2023/10/07 02:57:08;;;;;;;;;;;;;;;;;;2201548;66;3255;-25
2023/10/07 02:59:50;;;;;;;;;;;;;;;;;;2209343;64;3656;-24
2023/10/07 03:02:36;;;;;;;;;;;;;;;;;;2204522;66;2771;-24
2023/10/07 03:07:49;;;;;;;;;;;;;;;;;;2206792;59;3355;-24
2023/10/07 03:10:29;;;;;;;;;;;;;;;;;;2207328;62;2062;-24
2023/10/07 03:13:01;;;;;;;;;;;;;;;;;;2202948;59;2457;-24
2023/10/07 03:18:06;;;;;;;;;;;;;;;;;;2206844;59;3574;-24
2023/10/07 03:20:47;;;;;;;;;;;;;;;;;;2203452;59;2695;-24
2023/10/07 03:23:26;;;;;;;;;;;;;;;;;;2207683;66;2410;-24
2023/10/07 03:28:36;;;;;;;;;;;;;;;;;;2207847;67;1856;-24
2023/10/07 03:31:12;;;;;;;;;;;;;;;;;;2207575;59;2465;-24
2023/10/07 03:33:53;;;;;;;;;;;;;;;;;;2205680;59;3088;-24
2023/10/07 03:42:02;;;;;;;;;;;;;;;;;;2209632;58;2472;-24
2023/10/07 03:44:32;;;;;;;;;;;;;;;;;;2207785;59;3527;-24
2023/10/07 03:47:03;;;;;;;;;;;;;;;;;;2208717;66;2264;-24
2023/10/07 03:49:33;;;;;;;;;;;;;;;;;;2208474;59;3278;-24
2023/10/07 03:52:07;;;;;;;;;;;;;;;;;;2204056;59;4156;-24
2023/10/07 03:54:40;;;;;;;;;;;;;;;;;;2208613;66;2847;-24
2023/10/07 03:57:10;;;;;;;;;;;;;;;;;;2209267;66;2116;-24
2023/10/07 03:59:41;;;;;;;;;;;;;;;;;;2204401;59;4543;-24
2023/10/07 04:02:31;;;;;;;;;;;;;;;;;;2207401;66;3800;-24
2023/10/07 04:05:12;;;;;;;;;;;;;;;;;;2206583;66;1791;-24
2023/10/07 04:07:45;;;;;;;;;;;;;;;;;;2206459;59;2305;-24
2023/10/07 04:12:50;;;;;;;;;;;;;;;;;;2207461;59;2251;-24
2023/10/07 04:15:28;;;;;;;;;;;;;;;;;;2203719;59;2539;-25
2023/10/07 04:17:59;;;;;;;;;;;;;;;;;;2205827;58;2956;-24
2023/10/07 04:23:24;;;;;;;;;;;;;;;;;;2207541;59;1992;-25
2023/10/07 04:26:05;;;;;;;;;;;;;;;;;;2201783;59;3746;-25
2023/10/07 04:28:39;;;;;;;;;;;;;;;;;;2204012;66;2079;-24
2023/10/07 04:31:12;;;;;;;;;;;;;;;;;;2204228;59;2040;-24
2023/10/07 04:33:48;;;;;;;;;;;;;;;;;;2203189;66;2300;-25
2023/10/07 04:36:34;;;;;;;;;;;;;;;;;;2205450;66;2172;-25
2023/10/07 04:39:15;;;;;;;;;;;;;;;;;;2205633;58;3870;-25
2023/10/07 04:41:56;;;;;;;;;;;;;;;;;;2207245;59;2546;-25
2023/10/07 04:50:08;;;;;;;;;;;;;;;;;;2206460;59;4595;-25
2023/10/07 04:52:42;;;;;;;;;;;;;;;;;;2205622;59;2182;-24
2023/10/07 04:55:19;;;;;;;;;;;;;;;;;;2207025;59;3006;-25
2023/10/07 05:03:14;;;;;;;;;;;;;;;;;;2206341;59;2413;-24
2023/10/07 05:05:44;;;;;;;;;;;;;;;;;;2201450;59;1847;-25
2023/10/07 05:08:17;;;;;;;;;;;;;;;;;;2207105;59;2468;-25
2023/10/07 05:10:52;;;;;;;;;;;;;;;;;;2206659;59;3464;-25
2023/10/07 05:13:24;;;;;;;;;;;;;;;;;;2204910;59;2429;-25
2023/10/07 05:15:55;;;;;;;;;;;;;;;;;;2203023;59;3725;-25
2023/10/07 05:18:25;;;;;;;;;;;;;;;;;;2207286;59;4097;-25
2023/10/07 05:20:57;;;;;;;;;;;;;;;;;;2205757;58;2905;-24
2023/10/07 05:23:27;;;;;;;;;;;;;;;;;;2207600;59;2449;-24
2023/10/07 05:26:03;;;;;;;;;;;;;;;;;;2206656;66;1889;-26
2023/10/07 05:28:33;;;;;;;;;;;;;;;;;;2199579;58;1725;-25
2023/10/07 05:31:04;;;;;;;;;;;;;;;;;;2198834;59;2071;-26
2023/10/07 05:33:35;;;;;;;;;;;;;;;;;;2201803;59;1805;-26
2023/10/07 05:36:13;;;;;;;;;;;;;;;;;;2197175;59;1829;-26
2023/10/07 05:38:45;;;;;;;;;;;;;;;;;;2204995;58;2266;-25
2023/10/07 05:41:15;;;;;;;;;;;;;;;;;;2204231;59;2548;-25
2023/10/07 05:43:48;;;;;;;;;;;;;;;;;;2206361;59;1995;-25
2023/10/07 05:46:19;;;;;;;;;;;;;;;;;;2211362;59;2078;-26
2023/10/07 05:48:54;;;;;;;;;;;;;;;;;;2207124;66;4133;-25
2023/10/07 05:51:25;;;;;;;;;;;;;;;;;;2211561;59;2594;-25
2023/10/07 05:53:56;;;;;;;;;;;;;;;;;;2207539;66;2380;-26
2023/10/07 05:56:27;;;;;;;;;;;;;;;;;;2213894;66;4182;-26
2023/10/07 05:58:58;;;;;;;;;;;;;;;;;;2205555;66;2686;-25
2023/10/07 06:01:33;;;;;;;;;;;;;;;;;;2207903;58;2383;-25
2023/10/07 06:04:04;;;;;;;;;;;;;;;;;;2201398;59;2072;-25
2023/10/07 06:06:35;;;;;;;;;;;;;;;;;;2202340;58;1911;-26
2023/10/07 06:09:10;;;;;;;;;;;;;;;;;;2198622;58;2189;-25
2023/10/07 06:11:44;;;;;;;;;;;;;;;;;;2199313;59;1739;-25
2023/10/07 06:14:18;;;;;;;;;;;;;;;;;;2196023;59;1940;-25
2023/10/07 06:16:52;;;;;;;;;;;;;;;;;;2210735;58;1721;-25
2023/10/07 06:19:24;;;;;;;;;;;;;;;;;;2198551;58;2279;-25
2023/10/07 06:21:56;;;;;;;;;;;;;;;;;;2195018;59;2342;-25
2023/10/07 06:24:28;;;;;;;;;;;;;;;;;;2201517;59;2134;-25
2023/10/07 06:26:59;;;;;;;;;;;;;;;;;;2198162;59;2302;-25
2023/10/07 06:29:31;;;;;;;;;;;;;;;;;;2201495;59;1722;-25
2023/10/07 06:34:59;;;;;;;;;;;;;;;;;;2197857;58;1713;-25
2023/10/07 06:37:30;;;;;;;;;;;;;;;;;;2201387;59;1646;-25
2023/10/07 06:40:12;;;;;;;;;;;;;;;;;;2195901;59;2301;-25
2023/10/07 06:42:44;;;;;;;;;;;;;;;;;;2199319;59;1976;-25
2023/10/07 06:45:17;;;;;;;;;;;;;;;;;;2195978;59;1789;-25
2023/10/07 06:47:48;;;;;;;;;;;;;;;;;;2203179;59;1738;-25
2023/10/07 06:50:27;;;;;;;;;;;;;;;;;;2198462;59;2017;-25
2023/10/07 06:52:58;;;;;;;;;;;;;;;;;;2208457;58;1786;-25
2023/10/07 06:55:35;;;;;;;;;;;;;;;;;;2199013;58;1734;-25
2023/10/07 06:58:06;;;;;;;;;;;;;;;;;;2194770;58;6427;-25
2023/10/07 07:00:49;;;;;;;;;;;;;;;;;;2200916;59;1702;-25
2023/10/07 07:03:19;;;;;;;;;;;;;;;;;;2197380;58;2324;-25
2023/10/07 07:05:51;;;;;;;;;;;;;;;;;;2195894;59;2443;-25
2023/10/07 07:08:24;;;;;;;;;;;;;;;;;;2200577;58;1750;-25
2023/10/07 07:11:09;;;;;;;;;;;;;;;;;;2209757;58;2124;-25
2023/10/07 07:13:43;;;;;;;;;;;;;;;;;;2213107;58;1914;-25
2023/10/07 07:16:14;;;;;;;;;;;;;;;;;;2194734;58;1872;-26
2023/10/07 07:18:45;;;;;;;;;;;;;;;;;;2204223;59;1783;-26
2023/10/07 07:21:31;;;;;;;;;;;;;;;;;;2199810;58;2246;-26
2023/10/07 07:24:03;;;;;;;;;;;;;;;;;;2198837;59;1912;-25
2023/10/07 07:26:35;;;;;;;;;;;;;;;;;;2200894;59;1985;-25
2023/10/07 07:29:05;;;;;;;;;;;;;;;;;;2195107;59;1796;-26
2023/10/07 07:31:38;;;;;;;;;;;;;;;;;;2197267;59;1756;-26
2023/10/07 07:34:26;;;;;;;;;;;;;;;;;;2195961;58;1904;-26
2023/10/07 07:37:02;;;;;;;;;;;;;;;;;;2195760;58;1742;-26
2023/10/07 07:39:33;;;;;;;;;;;;;;;;;;2198049;59;1898;-24
2023/10/07 07:42:27;;;;;;;;;;;;;;;;;;2194575;59;1937;-26
2023/10/07 07:44:57;;;;;;;;;;;;;;;;;;2198803;59;1826;-24
2023/10/07 07:47:31;;;;;;;;;;;;;;;;;;2198708;59;1675;-26
2023/10/07 07:50:02;;;;;;;;;;;;;;;;;;2194793;59;2255;-25
2023/10/07 07:52:33;;;;;;;;;;;;;;;;;;2199092;59;1803;-26
2023/10/07 07:55:05;;;;;;;;;;;;;;;;;;2195172;59;1848;-26
2023/10/07 07:57:36;;;;;;;;;;;;;;;;;;2204514;59;1969;-26
2023/10/07 08:00:09;;;;;;;;;;;;;;;;;;2201364;59;1768;-26
2023/10/07 08:02:41;;;;;;;;;;;;;;;;;;2197262;58;1927;-26
2023/10/07 08:05:13;;;;;;;;;;;;;;;;;;2200287;58;2313;-24
2023/10/07 08:07:44;;;;;;;;;;;;;;;;;;2207968;58;1715;-24
2023/10/07 08:10:20;;;;;;;;;;;;;;;;;;2199423;59;1817;-24
2023/10/07 08:12:50;;;;;;;;;;;;;;;;;;2197477;58;2354;-24
2023/10/07 08:15:21;;;;;;;;;;;;;;;;;;2198127;59;1825;-24
2023/10/07 08:17:52;;;;;;;;;;;;;;;;;;2199617;59;1769;-24
2023/10/07 08:21:09;;;;;;;;;;;;;;;;;;2195953;59;2173;-24
2023/10/07 08:23:22;;;;;;;;;;;;;;;;;;2195812;59;2269;-25
2023/10/07 08:25:58;;;;;;;;;;;;;;;;;;2195894;58;2255;-25
2023/10/07 08:31:39;;;;;;;;;;;;;;;;;;2208105;53;4875;-25
2023/10/07 08:34:10;;;;;;;;;;;;;;;;;;2197561;58;1733;-25
2023/10/07 08:36:46;;;;;;;;;;;;;;;;;;2209342;58;2046;-25
2023/10/07 08:39:19;;;;;;;;;;;;;;;;;;2207339;58;2447;-24
2023/10/07 08:41:52;;;;;;;;;;;;;;;;;;2209320;58;2226;-24
2023/10/07 08:44:31;;;;;;;;;;;;;;;;;;2208215;58;2091;-25
2023/10/07 08:47:05;;;;;;;;;;;;;;;;;;2207066;58;1747;-26
2023/10/07 08:49:38;;;;;;;;;;;;;;;;;;2211245;58;2501;-24
2023/10/07 08:52:11;;;;;;;;;;;;;;;;;;2216255;58;3849;-24
2023/10/07 08:54:44;;;;;;;;;;;;;;;;;;2215011;58;2685;-24
2023/10/07 08:57:18;;;;;;;;;;;;;;;;;;2210953;59;3968;-24
2023/10/07 08:59:52;;;;;;;;;;;;;;;;;;2216662;61;2535;-24
2023/10/07 09:02:26;;;;;;;;;;;;;;;;;;2211168;66;3697;-24
2023/10/07 09:05:08;;;;;;;;;;;;;;;;;;2211240;59;2682;-24
2023/10/07 09:07:39;;;;;;;;;;;;;;;;;;2218342;58;2738;-24
2023/10/07 09:10:15;;;;;;;;;;;;;;;;;;2216689;59;2456;-24
2023/10/07 09:12:47;;;;;;;;;;;;;;;;;;2218108;58;2357;-24
2023/10/07 09:15:26;;;;;;;;;;;;;;;;;;2216055;58;2372;-24
2023/10/07 09:18:05;;;;;;;;;;;;;;;;;;2215108;58;3566;-24
2023/10/07 09:20:45;;;;;;;;;;;;;;;;;;2215638;58;4069;-24
2023/10/07 09:23:15;;;;;;;;;;;;;;;;;;2210241;58;2460;-25
2023/10/07 09:25:50;;;;;;;;;;;;;;;;;;2210042;59;2407;-25
2023/10/07 09:28:34;;;;;;;;;;;;;;;;;;2207899;58;1814;-25
2023/10/07 09:31:06;;;;;;;;;;;;;;;;;;2208196;58;2404;-25
2023/10/07 09:33:37;;;;;;;;;;;;;;;;;;2209430;59;2355;-25
2023/10/07 09:41:45;;;;;;;;;;;;;;;;;;2218724;58;2303;-24
2023/10/07 09:44:28;;;;;;;;;;;;;;;;;;2217781;59;2954;-24
2023/10/07 09:47:13;;;;;;;;;;;;;;;;;;2214870;59;2455;-23
2023/10/07 09:49:44;;;;;;;;;;;;;;;;;;2213318;59;3220;-24
2023/10/07 09:52:17;;;;;;;;;;;;;;;;;;2214474;59;2795;-25
2023/10/07 09:54:50;;;;;;;;;;;;;;;;;;2216212;59;2496;-24
2023/10/07 09:57:30;;;;;;;;;;;;;;;;;;2214240;59;2581;-26
2023/10/07 10:03:20;;;;;;;;;;;;;;;;;;2217057;59;3149;-25
2023/10/07 10:06:13;;;;;;;;;;;;;;;;;;2217562;58;2390;-24
2023/10/07 10:08:59;;;;;;;;;;;;;;;;;;2216495;59;2818;-25
2023/10/07 10:14:19;;;;;;;;;;;;;;;;;;2213863;66;2295;-25
2023/10/07 10:16:59;;;;;;;;;;;;;;;;;;2212255;59;2520;-24
2023/10/07 10:19:44;;;;;;;;;;;;;;;;;;2215789;58;3668;-25
2023/10/07 10:22:22;;;;;;;;;;;;;;;;;;2215920;58;3096;-25
2023/10/07 10:25:14;;;;;;;;;;;;;;;;;;2213128;58;3811;-24
2023/10/07 10:27:44;;;;;;;;;;;;;;;;;;2217162;66;1831;-25
2023/10/07 10:30:22;;;;;;;;;;;;;;;;;;2215904;58;3061;-25
2023/10/07 10:32:54;;;;;;;;;;;;;;;;;;2218088;59;2784;-23
2023/10/07 10:35:25;;;;;;;;;;;;;;;;;;2216211;59;4458;-24
2023/10/07 10:37:56;;;;;;;;;;;;;;;;;;2217593;58;2074;-24
2023/10/07 10:40:31;;;;;;;;;;;;;;;;;;2210940;59;2395;-24
2023/10/07 10:43:02;;;;;;;;;;;;;;;;;;2214151;59;3745;-24
2023/10/07 10:45:32;;;;;;;;;;;;;;;;;;2214204;58;2829;-24
2023/10/07 10:48:04;;;;;;;;;;;;;;;;;;2213899;58;4010;-24
2023/10/07 10:50:34;;;;;;;;;;;;;;;;;;2216623;58;3972;-24
2023/10/07 10:53:05;;;;;;;;;;;;;;;;;;2215800;58;3451;-24
2023/10/07 10:55:36;;;;;;;;;;;;;;;;;;2216241;59;3545;-24
2023/10/07 10:58:13;;;;;;;;;;;;;;;;;;2215832;66;2771;-25
2023/10/07 11:00:48;;;;;;;;;;;;;;;;;;2216597;58;5038;-24
2023/10/07 11:03:20;;;;;;;;;;;;;;;;;;2213605;66;2800;-24
2023/10/07 11:05:56;;;;;;;;;;;;;;;;;;2214818;58;3623;-24
2023/10/07 11:08:26;;;;;;;;;;;;;;;;;;2216930;66;3240;-24
2023/10/07 11:11:00;;;;;;;;;;;;;;;;;;2216113;58;3606;-24
2023/10/07 11:13:31;;;;;;;;;;;;;;;;;;2217200;58;3656;-24
2023/10/07 11:16:09;;;;;;;;;;;;;;;;;;2213656;59;2588;-24
2023/10/07 11:18:44;;;;;;;;;;;;;;;;;;2216682;58;2828;-24
2023/10/07 11:21:18;;;;;;;;;;;;;;;;;;2212032;59;2964;-24
2023/10/07 11:23:49;;;;;;;;;;;;;;;;;;2217501;58;2440;-23
2023/10/07 11:26:20;;;;;;;;;;;;;;;;;;2216165;58;2627;-24
2023/10/07 11:28:51;;;;;;;;;;;;;;;;;;2217385;66;3373;-24
2023/10/07 11:31:28;;;;;;;;;;;;;;;;;;2215549;58;2995;-23
2023/10/07 11:33:59;;;;;;;;;;;;;;;;;;2216989;66;2546;-24
2023/10/07 11:36:30;;;;;;;;;;;;;;;;;;2216255;58;3776;-23
2023/10/07 11:39:06;;;;;;;;;;;;;;;;;;2216409;58;3471;-24
2023/10/07 11:41:37;;;;;;;;;;;;;;;;;;2214283;58;3463;-24
2023/10/07 11:44:09;;;;;;;;;;;;;;;;;;2213433;59;3417;-24
2023/10/07 11:46:41;;;;;;;;;;;;;;;;;;2216512;58;3298;-23
2023/10/07 11:49:14;;;;;;;;;;;;;;;;;;2217515;66;3498;-24
2023/10/07 11:51:44;;;;;;;;;;;;;;;;;;2216164;58;2199;-23
2023/10/07 11:54:15;;;;;;;;;;;;;;;;;;2217303;66;3574;-24
2023/10/07 11:56:45;;;;;;;;;;;;;;;;;;2214484;59;2166;-24
2023/10/07 11:59:15;;;;;;;;;;;;;;;;;;2216941;66;3987;-24
2023/10/07 12:01:47;;;;;;;;;;;;;;;;;;2217488;59;1805;-24
2023/10/07 12:04:19;;;;;;;;;;;;;;;;;;2213679;66;3892;-24
2023/10/07 12:06:51;;;;;;;;;;;;;;;;;;2215007;58;3493;-24
2023/10/07 12:09:22;;;;;;;;;;;;;;;;;;2215176;58;2760;-24
2023/10/07 12:11:53;;;;;;;;;;;;;;;;;;2218033;58;3500;-24
2023/10/07 12:14:27;;;;;;;;;;;;;;;;;;2212015;59;4901;-24
2023/10/07 12:16:58;;;;;;;;;;;;;;;;;;2215160;58;2962;-24
2023/10/07 12:19:30;;;;;;;;;;;;;;;;;;2215665;58;2872;-24
2023/10/07 12:22:03;;;;;;;;;;;;;;;;;;2218220;59;1995;-24
2023/10/07 12:24:34;;;;;;;;;;;;;;;;;;2217060;58;2662;-24
2023/10/07 12:27:06;;;;;;;;;;;;;;;;;;2213443;58;3284;-23
2023/10/07 12:29:38;;;;;;;;;;;;;;;;;;2218148;58;2315;-23
2023/10/07 12:32:09;;;;;;;;;;;;;;;;;;2217588;58;2327;-24
2023/10/07 12:34:47;;;;;;;;;;;;;;;;;;2217207;58;3946;-24
2023/10/07 12:37:17;;;;;;;;;;;;;;;;;;2214720;66;3268;-24
2023/10/07 12:39:49;;;;;;;;;;;;;;;;;;2216708;58;3885;-24
2023/10/07 12:42:19;;;;;;;;;;;;;;;;;;2212556;59;3418;-25
2023/10/07 12:44:50;;;;;;;;;;;;;;;;;;2217535;58;2770;-24
2023/10/07 12:47:22;;;;;;;;;;;;;;;;;;2214305;58;3700;-24
2023/10/07 12:49:53;;;;;;;;;;;;;;;;;;2214673;58;2291;-24
2023/10/07 12:52:26;;;;;;;;;;;;;;;;;;2211603;58;2986;-24
2023/10/07 12:54:58;;;;;;;;;;;;;;;;;;2216964;58;3302;-23
2023/10/07 12:57:28;;;;;;;;;;;;;;;;;;2215767;59;4074;-24
2023/10/07 12:59:58;;;;;;;;;;;;;;;;;;2216808;58;3318;-23
2023/10/07 13:02:29;;;;;;;;;;;;;;;;;;2211735;59;3445;-24
2023/10/07 13:04:59;;;;;;;;;;;;;;;;;;2214872;58;3655;-24
2023/10/07 13:07:29;;;;;;;;;;;;;;;;;;2217064;58;4248;-24
2023/10/07 13:10:00;;;;;;;;;;;;;;;;;;2214704;66;2584;-24
2023/10/07 13:12:33;;;;;;;;;;;;;;;;;;2217473;58;2311;-24
2023/10/07 13:15:14;;;;;;;;;;;;;;;;;;2214974;58;4103;-24
2023/10/07 13:17:45;;;;;;;;;;;;;;;;;;2217783;58;2613;-24
2023/10/07 13:20:23;;;;;;;;;;;;;;;;;;2213855;58;3458;-24
2023/10/07 13:22:57;;;;;;;;;;;;;;;;;;2216727;59;2938;-24
2023/10/07 13:25:28;;;;;;;;;;;;;;;;;;2217031;58;3764;-25
2023/10/07 13:28:00;;;;;;;;;;;;;;;;;;2217171;58;2919;-24
2023/10/07 13:30:30;;;;;;;;;;;;;;;;;;2216135;58;4300;-24
2023/10/07 13:33:01;;;;;;;;;;;;;;;;;;2217638;58;3365;-24
2023/10/07 13:35:32;;;;;;;;;;;;;;;;;;2216934;58;3572;-24
2023/10/07 13:38:03;;;;;;;;;;;;;;;;;;2218742;58;1964;-24
2023/10/07 13:40:37;;;;;;;;;;;;;;;;;;2216598;58;2677;-24
2023/10/07 13:43:09;;;;;;;;;;;;;;;;;;2213919;58;2903;-25
2023/10/07 13:45:40;;;;;;;;;;;;;;;;;;2218444;58;2028;-25
2023/10/07 13:48:11;;;;;;;;;;;;;;;;;;2215391;59;2005;-24
2023/10/07 13:50:41;;;;;;;;;;;;;;;;;;2212393;58;1768;-24
2023/10/07 13:53:15;;;;;;;;;;;;;;;;;;2211429;59;4103;-25
2023/10/07 13:55:55;;;;;;;;;;;;;;;;;;2214851;59;3517;-24
2023/10/07 13:58:25;;;;;;;;;;;;;;;;;;2215408;58;2334;-24
2023/10/07 14:00:57;;;;;;;;;;;;;;;;;;2214452;58;4370;-23
2023/10/07 14:03:37;;;;;;;;;;;;;;;;;;2214364;59;2957;-24
2023/10/07 14:06:12;;;;;;;;;;;;;;;;;;2213041;58;2734;-25
2023/10/07 14:08:43;;;;;;;;;;;;;;;;;;2214050;58;2891;-25
2023/10/07 14:11:14;;;;;;;;;;;;;;;;;;2217650;59;3007;-24
2023/10/07 14:13:47;;;;;;;;;;;;;;;;;;2211763;58;2714;-24
2023/10/07 14:16:17;;;;;;;;;;;;;;;;;;2216984;66;3386;-24
2023/10/07 14:18:49;;;;;;;;;;;;;;;;;;2218209;58;2686;-24
2023/10/07 14:21:20;;;;;;;;;;;;;;;;;;2217352;58;2397;-24
2023/10/07 14:23:51;;;;;;;;;;;;;;;;;;2215053;59;2213;-23
2023/10/07 14:26:22;;;;;;;;;;;;;;;;;;2213819;58;3153;-24
2023/10/07 14:28:52;;;;;;;;;;;;;;;;;;2215727;58;3224;-25
2023/10/07 14:31:23;;;;;;;;;;;;;;;;;;2216382;58;3451;-25
2023/10/07 14:33:54;;;;;;;;;;;;;;;;;;2217113;58;3497;-23
2023/10/07 14:36:24;;;;;;;;;;;;;;;;;;2216782;59;2431;-24
2023/10/07 14:38:55;;;;;;;;;;;;;;;;;;2217695;58;2848;-24
2023/10/07 14:41:28;;;;;;;;;;;;;;;;;;2214652;58;2687;-24
2023/10/07 14:43:59;;;;;;;;;;;;;;;;;;2217086;66;3939;-24
2023/10/07 14:46:29;;;;;;;;;;;;;;;;;;2216289;58;2631;-24
2023/10/07 14:48:59;;;;;;;;;;;;;;;;;;2216778;58;2564;-25
2023/10/07 14:51:30;;;;;;;;;;;;;;;;;;2215665;58;3439;-25
2023/10/07 14:54:01;;;;;;;;;;;;;;;;;;2214661;58;3009;-24
2023/10/07 14:56:36;;;;;;;;;;;;;;;;;;2216240;58;1704;-19
2023/10/07 14:59:06;;;;;;;;;;;;;;;;;;2217357;58;3106;-20
2023/10/07 15:01:37;;;;;;;;;;;;;;;;;;2215243;66;2227;-21
2023/10/07 15:04:07;;;;;;;;;;;;;;;;;;2216054;66;3444;-19
2023/10/07 15:06:38;;;;;;;;;;;;;;;;;;2211006;59;4095;-19
2023/10/07 15:09:08;;;;;;;;;;;;;;;;;;2212687;59;3927;-20
2023/10/07 15:11:39;;;;;;;;;;;;;;;;;;2214413;58;2593;-18
2023/10/07 15:14:09;;;;;;;;;;;;;;;;;;2215422;58;2407;-19
2023/10/07 15:16:42;;;;;;;;;;;;;;;;;;2208725;59;2439;-18
2023/10/07 15:19:12;;;;;;;;;;;;;;;;;;2215152;59;2634;-19
2023/10/07 15:21:42;;;;;;;;;;;;;;;;;;2214099;58;1982;-19
2023/10/07 15:24:13;;;;;;;;;;;;;;;;;;2214079;58;2643;-20
2023/10/07 15:26:43;;;;;;;;;;;;;;;;;;2212097;59;3343;-18
2023/10/07 15:29:14;;;;;;;;;;;;;;;;;;2213127;59;3495;-19
2023/10/07 15:31:44;;;;;;;;;;;;;;;;;;2211842;59;3645;-20
2023/10/07 15:34:15;;;;;;;;;;;;;;;;;;2214486;66;4445;-20
2023/10/07 15:36:45;;;;;;;;;;;;;;;;;;2215079;59;2713;-21
2023/10/07 15:39:17;;;;;;;;;;;;;;;;;;2213754;58;2640;-19
2023/10/07 15:41:47;;;;;;;;;;;;;;;;;;2210555;58;3232;-18
2023/10/07 15:44:19;;;;;;;;;;;;;;;;;;2210797;59;2252;-21
2023/10/07 15:46:49;;;;;;;;;;;;;;;;;;2212373;58;1946;-21
2023/10/07 15:49:19;;;;;;;;;;;;;;;;;;2212536;58;2378;-21
2023/10/07 15:51:51;;;;;;;;;;;;;;;;;;2210495;59;2676;-18
2023/10/07 15:54:22;;;;;;;;;;;;;;;;;;2211236;58;3282;-20
2023/10/07 15:56:53;;;;;;;;;;;;;;;;;;2227311;58;2954;-19
2023/10/07 15:59:23;;;;;;;;;;;;;;;;;;2214503;59;3306;-19
2023/10/07 16:01:54;;;;;;;;;;;;;;;;;;2214344;59;1997;-19
2023/10/07 16:04:25;;;;;;;;;;;;;;;;;;2214527;59;2659;-19
2023/10/07 16:07:01;;;;;;;;;;;;;;;;;;2222979;58;2693;-19
2023/10/07 16:09:34;;;;;;;;;;;;;;;;;;2224487;66;2517;-19
2023/10/07 16:12:07;;;;;;;;;;;;;;;;;;2212726;59;2429;-20
2023/10/07 16:14:37;;;;;;;;;;;;;;;;;;2211737;58;2749;-20
2023/10/07 16:17:09;;;;;;;;;;;;;;;;;;2212426;58;2219;-20
2023/10/07 16:19:39;;;;;;;;;;;;;;;;;;2224398;66;3843;-21
2023/10/07 16:22:10;;;;;;;;;;;;;;;;;;2212665;58;2171;-20
2023/10/07 16:24:40;;;;;;;;;;;;;;;;;;2222754;58;2800;-20
2023/10/07 16:27:10;;;;;;;;;;;;;;;;;;2224371;58;4562;-21
2023/10/07 16:29:41;;;;;;;;;;;;;;;;;;2222139;58;2897;-20
2023/10/07 16:32:11;;;;;;;;;;;;;;;;;;2224502;58;3124;-19
2023/10/07 16:34:41;;;;;;;;;;;;;;;;;;2211838;58;3319;-19
2023/10/07 16:37:14;;;;;;;;;;;;;;;;;;2224393;66;1366;-21
2023/10/07 16:39:45;;;;;;;;;;;;;;;;;;2224559;58;2755;-19
2023/10/07 16:42:16;;;;;;;;;;;;;;;;;;2212278;58;3633;-18
2023/10/07 16:44:46;;;;;;;;;;;;;;;;;;2211977;58;2740;-19
2023/10/07 16:47:17;;;;;;;;;;;;;;;;;;2211492;59;2820;-20
2023/10/07 16:49:47;;;;;;;;;;;;;;;;;;2224597;58;2466;-20
2023/10/07 16:52:18;;;;;;;;;;;;;;;;;;2223346;58;3427;-20
2023/10/07 16:54:49;;;;;;;;;;;;;;;;;;2223768;58;2098;-20
2023/10/07 16:57:19;;;;;;;;;;;;;;;;;;2210903;58;3589;-20
2023/10/07 16:59:50;;;;;;;;;;;;;;;;;;2222908;58;2468;-18
2023/10/07 17:02:21;;;;;;;;;;;;;;;;;;2211394;59;3338;-20
2023/10/07 17:04:55;;;;;;;;;;;;;;;;;;2211929;59;1758;-20
2023/10/07 17:07:25;;;;;;;;;;;;;;;;;;2223269;58;3660;-20
2023/10/07 17:09:56;;;;;;;;;;;;;;;;;;2211568;59;3681;-20
2023/10/07 17:12:27;;;;;;;;;;;;;;;;;;2211331;58;2280;-20
2023/10/07 17:14:57;;;;;;;;;;;;;;;;;;2211678;58;2585;-20
2023/10/07 17:17:28;;;;;;;;;;;;;;;;;;2211543;58;2661;-20
2023/10/07 17:20:00;;;;;;;;;;;;;;;;;;2211995;58;2397;-19
2023/10/07 17:22:31;;;;;;;;;;;;;;;;;;2221775;58;3202;-21
2023/10/07 17:25:01;;;;;;;;;;;;;;;;;;2212439;59;2463;-19
2023/10/07 17:27:32;;;;;;;;;;;;;;;;;;2211529;59;3880;-22
2023/10/07 17:30:06;;;;;;;;;;;;;;;;;;2212091;59;2572;-21
2023/10/07 17:32:36;;;;;;;;;;;;;;;;;;2220783;58;2324;-19
2023/10/07 17:35:08;;;;;;;;;;;;;;;;;;2211911;59;3465;-19
2023/10/07 17:37:39;;;;;;;;;;;;;;;;;;2223530;58;4048;-19
2023/10/07 17:40:12;;;;;;;;;;;;;;;;;;2211581;59;2030;-19
2023/10/07 17:42:42;;;;;;;;;;;;;;;;;;2210968;58;2919;-19
2023/10/07 17:45:14;;;;;;;;;;;;;;;;;;2211972;59;2492;-19
2023/10/07 17:47:47;;;;;;;;;;;;;;;;;;2211390;59;4646;-19
2023/10/07 17:50:18;;;;;;;;;;;;;;;;;;2224430;58;2888;-19
2023/10/07 17:52:49;;;;;;;;;;;;;;;;;;2224056;58;2246;-19
2023/10/07 17:55:20;;;;;;;;;;;;;;;;;;2219456;59;2830;-19
2023/10/07 17:57:50;;;;;;;;;;;;;;;;;;2211804;59;1808;-22
2023/10/07 18:00:26;;;;;;;;;;;;;;;;;;2220522;58;3834;-20
2023/10/07 18:02:57;;;;;;;;;;;;;;;;;;2224514;59;2479;-19
2023/10/07 18:05:27;;;;;;;;;;;;;;;;;;2211037;59;4566;-19
2023/10/07 18:07:57;;;;;;;;;;;;;;;;;;2211654;58;3036;-19
2023/10/07 18:10:29;;;;;;;;;;;;;;;;;;2223121;58;3295;-19
2023/10/07 18:13:05;;;;;;;;;;;;;;;;;;2212081;59;2829;-19
2023/10/07 18:15:39;;;;;;;;;;;;;;;;;;2223388;58;3444;-19
2023/10/07 18:18:09;;;;;;;;;;;;;;;;;;2212653;58;2645;-19
2023/10/07 18:20:39;;;;;;;;;;;;;;;;;;2208609;59;3609;-21
2023/10/07 18:23:09;;;;;;;;;;;;;;;;;;2224305;59;1952;-22
2023/10/07 18:25:40;;;;;;;;;;;;;;;;;;2222415;58;3516;-20
2023/10/07 18:28:10;;;;;;;;;;;;;;;;;;2225092;58;3636;-19
2023/10/07 18:30:43;;;;;;;;;;;;;;;;;;2210593;66;2778;-20
2023/10/07 18:33:16;;;;;;;;;;;;;;;;;;2224042;58;4109;-22
2023/10/07 18:35:48;;;;;;;;;;;;;;;;;;2220787;58;2214;-19
2023/10/07 18:38:20;;;;;;;;;;;;;;;;;;2212126;59;3513;-20
2023/10/07 18:40:51;;;;;;;;;;;;;;;;;;2211160;59;2529;-19
2023/10/07 18:43:21;;;;;;;;;;;;;;;;;;2212216;58;3696;-22
2023/10/07 18:45:53;;;;;;;;;;;;;;;;;;2224458;58;3786;-20
2023/10/07 18:48:23;;;;;;;;;;;;;;;;;;2221503;58;3005;-21
2023/10/07 18:50:55;;;;;;;;;;;;;;;;;;2224990;58;2736;-21
2023/10/07 18:53:25;;;;;;;;;;;;;;;;;;2211960;66;4270;-19